sensor_id;sensor_type;location;lat;lon;timestamp;pressure;altitude;pressure_sealevel;temperature;humidity
30949;BME280;17637;51.984;21.208;2022-11-15T00:00:57;100536.44;;;5.73;75.58
30949;BME280;17637;51.984;21.208;2022-11-15T00:03:27;100714.69;;;6.79;75.60
30949;BME280;17637;51.984;21.208;2022-11-15T00:05:54;100446.06;;;5.21;75.43
30949;BME280;17637;51.984;21.208;2022-11-15T00:08:21;100508.91;;;5.57;75.69
30949;BME280;17637;51.984;21.208;2022-11-15T00:10:55;100444.06;;;4.52;75.67
30949;BME280;17637;51.984;21.208;2022-11-15T00:13:23;100622.66;;;6.13;75.91
30949;BME280;17637;51.984;21.208;2022-11-15T00:15:50;100693.91;;;6.74;75.79
30949;BME280;17637;51.984;21.208;2022-11-15T00:18:17;100697.31;;;6.79;75.65
30949;BME280;17637;51.984;21.208;2022-11-15T00:20:44;100577.78;;;5.91;75.68
30949;BME280;17637;51.984;21.208;2022-11-15T00:23:11;100373.78;;;4.81;75.74
30949;BME280;17637;51.984;21.208;2022-11-15T00:25:38;100700.06;;;6.69;76.16
30949;BME280;17637;51.984;21.208;2022-11-15T00:28:05;100235.72;;;3.60;75.65
30949;BME280;17637;51.984;21.208;2022-11-15T00:30:32;100390.97;;;4.96;75.80
30949;BME280;17637;51.984;21.208;2022-11-15T00:33:06;100530.31;;;5.77;75.65
30949;BME280;17637;51.984;21.208;2022-11-15T00:35:34;100669.59;;;6.77;75.60
30949;BME280;17637;51.984;21.208;2022-11-15T00:38:01;100666.88;;;6.83;75.48
30949;BME280;17637;51.984;21.208;2022-11-15T00:40:29;100670.41;;;6.80;75.58
30949;BME280;17637;51.984;21.208;2022-11-15T00:42:56;100673.03;;;6.77;75.81
30949;BME280;17637;51.984;21.208;2022-11-15T00:45:24;100410.50;;;5.30;75.82
30949;BME280;17637;51.984;21.208;2022-11-15T00:47:51;100407.22;;;5.13;75.71
30949;BME280;17637;51.984;21.208;2022-11-15T00:50:18;100519.72;;;5.97;75.67
30949;BME280;17637;51.984;21.208;2022-11-15T00:52:45;100392.41;;;5.23;75.79
30949;BME280;17637;51.984;21.208;2022-11-15T00:55:15;100641.88;;;6.74;76.24
30949;BME280;17637;51.984;21.208;2022-11-15T00:57:42;100653.19;;;6.72;76.09
30949;BME280;17637;51.984;21.208;2022-11-15T01:00:10;99793.38;;;1.45;75.67
30949;BME280;17637;51.984;21.208;2022-11-15T01:02:37;100641.97;;;6.67;76.26
30949;BME280;17637;51.984;21.208;2022-11-15T01:05:05;100639.38;;;6.67;76.30
30949;BME280;17637;51.984;21.208;2022-11-15T01:07:33;100449.22;;;5.50;76.41
30949;BME280;17637;51.984;21.208;2022-11-15T01:10:00;100075.41;;;3.34;76.23
30949;BME280;17637;51.984;21.208;2022-11-15T01:12:27;100594.72;;;6.31;76.48
30949;BME280;17637;51.984;21.208;2022-11-15T01:14:54;100327.81;;;4.97;76.10
30949;BME280;17637;51.984;21.208;2022-11-15T01:17:21;100525.69;;;6.04;76.31
30949;BME280;17637;51.984;21.208;2022-11-15T01:19:48;100434.41;;;5.57;76.37
30949;BME280;17637;51.984;21.208;2022-11-15T01:22:15;99838.03;;;1.57;75.92
30949;BME280;17637;51.984;21.208;2022-11-15T01:24:42;100393.53;;;4.99;76.33
30949;BME280;17637;51.984;21.208;2022-11-15T01:27:09;100290.91;;;4.68;76.51
30949;BME280;17637;51.984;21.208;2022-11-15T01:29:37;100332.06;;;5.02;76.44
30949;BME280;17637;51.984;21.208;2022-11-15T01:32:04;100095.94;;;3.58;76.29
30949;BME280;17637;51.984;21.208;2022-11-15T01:34:31;100297.63;;;4.88;76.45
30949;BME280;17637;51.984;21.208;2022-11-15T01:36:58;100559.31;;;6.19;76.64
30949;BME280;17637;51.984;21.208;2022-11-15T01:39:25;100449.06;;;5.66;76.40
30949;BME280;17637;51.984;21.208;2022-11-15T01:41:53;100248.66;;;4.59;76.63
30949;BME280;17637;51.984;21.208;2022-11-15T01:50:00;100257.19;;;4.68;76.89
30949;BME280;17637;51.984;21.208;2022-11-15T01:52:31;100574.56;;;6.48;77.00
30949;BME280;17637;51.984;21.208;2022-11-15T01:55:24;100554.53;;;6.53;77.16
30949;BME280;17637;51.984;21.208;2022-11-15T01:58:01;100564.88;;;6.58;76.84
30949;BME280;17637;51.984;21.208;2022-11-15T02:00:31;100383.47;;;5.45;76.91
30949;BME280;17637;51.984;21.208;2022-11-15T02:02:58;100298.44;;;4.91;76.93
30949;BME280;17637;51.984;21.208;2022-11-15T02:05:25;100411.91;;;5.58;76.96
30949;BME280;17637;51.984;21.208;2022-11-15T02:07:53;99999.66;;;3.18;76.81
30949;BME280;17637;51.984;21.208;2022-11-15T02:10:22;100551.19;;;6.45;77.27
30949;BME280;17637;51.984;21.208;2022-11-15T02:12:50;100554.53;;;6.53;77.26
30949;BME280;17637;51.984;21.208;2022-11-15T02:15:18;100099.97;;;3.86;76.79
30949;BME280;17637;51.984;21.208;2022-11-15T02:18:19;100541.59;;;6.49;77.05
30949;BME280;17637;51.984;21.208;2022-11-15T02:24:28;100435.13;;;5.70;77.47
30949;BME280;17637;51.984;21.208;2022-11-15T02:32:27;100168.69;;;4.23;77.32
30949;BME280;17637;51.984;21.208;2022-11-15T02:35:29;100537.28;;;6.46;77.40
30949;BME280;17637;51.984;21.208;2022-11-15T02:38:11;100409.94;;;5.76;77.08
30949;BME280;17637;51.984;21.208;2022-11-15T02:40:58;100522.47;;;6.51;77.29
30949;BME280;17637;51.984;21.208;2022-11-15T02:43:48;100228.75;;;4.59;77.17
30949;BME280;17637;51.984;21.208;2022-11-15T02:46:59;100329.25;;;5.21;77.25
30949;BME280;17637;51.984;21.208;2022-11-15T02:49:50;100094.94;;;3.72;77.16
30949;BME280;17637;51.984;21.208;2022-11-15T02:52:20;100159.31;;;4.10;77.27
30949;BME280;17637;51.984;21.208;2022-11-15T02:54:59;100380.72;;;5.58;77.19
30949;BME280;17637;51.984;21.208;2022-11-15T03:00:12;100457.25;;;6.06;77.28
30949;BME280;17637;51.984;21.208;2022-11-15T03:08:31;100507.91;;;6.39;77.19
30949;BME280;17637;51.984;21.208;2022-11-15T03:11:12;100316.13;;;5.31;77.10
30949;BME280;17637;51.984;21.208;2022-11-15T03:19:32;100172.69;;;4.49;77.08
30949;BME280;17637;51.984;21.208;2022-11-15T03:21:57;100228.50;;;4.82;77.15
30949;BME280;17637;51.984;21.208;2022-11-15T03:24:29;100324.63;;;5.44;77.32
30949;BME280;17637;51.984;21.208;2022-11-15T03:26:59;100459.00;;;6.04;77.27
30949;BME280;17637;51.984;21.208;2022-11-15T03:29:33;100197.53;;;4.68;77.33
30949;BME280;17637;51.984;21.208;2022-11-15T03:32:26;100219.16;;;4.69;77.27
30949;BME280;17637;51.984;21.208;2022-11-15T03:35:05;100463.72;;;6.38;77.35
30949;BME280;17637;51.984;21.208;2022-11-15T03:37:48;100465.41;;;6.40;77.32
30949;BME280;17637;51.984;21.208;2022-11-15T03:40:23;100461.97;;;6.40;77.43
30949;BME280;17637;51.984;21.208;2022-11-15T03:45:31;99921.25;;;3.13;77.16
30949;BME280;17637;51.984;21.208;2022-11-15T03:48:21;100463.78;;;6.33;77.51
30949;BME280;17637;51.984;21.208;2022-11-15T03:50:48;99887.88;;;2.87;77.09
30949;BME280;17637;51.984;21.208;2022-11-15T03:53:16;100458.63;;;6.30;77.59
30949;BME280;17637;51.984;21.208;2022-11-15T03:55:43;100388.94;;;5.92;77.68
30949;BME280;17637;51.984;21.208;2022-11-15T03:58:10;100431.81;;;6.27;77.37
30949;BME280;17637;51.984;21.208;2022-11-15T04:00:37;100394.09;;;5.98;77.41
30949;BME280;17637;51.984;21.208;2022-11-15T04:03:04;100212.63;;;5.08;77.14
30949;BME280;17637;51.984;21.208;2022-11-15T04:05:31;100265.09;;;5.29;77.21
30949;BME280;17637;51.984;21.208;2022-11-15T04:07:58;100088.41;;;4.16;77.61
30949;BME280;17637;51.984;21.208;2022-11-15T04:10:25;100379.41;;;5.91;77.67
30949;BME280;17637;51.984;21.208;2022-11-15T04:12:52;100222.19;;;5.03;77.45
30949;BME280;17637;51.984;21.208;2022-11-15T04:15:22;99694.13;;;1.89;77.28
30949;BME280;17637;51.984;21.208;2022-11-15T04:17:51;100126.88;;;4.53;77.70
30949;BME280;17637;51.984;21.208;2022-11-15T04:20:24;100348.59;;;5.66;77.77
30949;BME280;17637;51.984;21.208;2022-11-15T04:23:12;100415.34;;;6.26;77.79
30949;BME280;17637;51.984;21.208;2022-11-15T04:26:01;100226.38;;;5.13;77.68
30949;BME280;17637;51.984;21.208;2022-11-15T04:28:28;100235.00;;;5.16;77.53
30949;BME280;17637;51.984;21.208;2022-11-15T04:30:55;100203.97;;;5.06;77.50
30949;BME280;17637;51.984;21.208;2022-11-15T04:33:23;100075.34;;;4.26;77.69
30949;BME280;17637;51.984;21.208;2022-11-15T04:35:50;99857.56;;;2.98;77.29
30949;BME280;17637;51.984;21.208;2022-11-15T04:38:37;100335.59;;;5.66;77.95
30949;BME280;17637;51.984;21.208;2022-11-15T04:41:04;99707.16;;;1.74;77.68
30949;BME280;17637;51.984;21.208;2022-11-15T04:43:31;100223.19;;;4.93;77.76
30949;BME280;17637;51.984;21.208;2022-11-15T04:45:59;99767.69;;;2.40;77.45
30949;BME280;17637;51.984;21.208;2022-11-15T04:48:26;100273.00;;;5.23;77.56
30949;BME280;17637;51.984;21.208;2022-11-15T04:50:53;100394.81;;;6.08;77.88
30949;BME280;17637;51.984;21.208;2022-11-15T04:53:20;100394.75;;;6.11;77.89
30949;BME280;17637;51.984;21.208;2022-11-15T04:55:47;100004.09;;;3.87;77.71
30949;BME280;17637;51.984;21.208;2022-11-15T04:58:14;100188.63;;;4.91;77.76
30949;BME280;17637;51.984;21.208;2022-11-15T05:00:41;100240.88;;;5.28;77.86
30949;BME280;17637;51.984;21.208;2022-11-15T05:03:09;100198.84;;;5.03;77.74
30949;BME280;17637;51.984;21.208;2022-11-15T05:05:55;100406.13;;;6.05;78.07
30949;BME280;17637;51.984;21.208;2022-11-15T05:08:24;100388.75;;;6.07;78.25
30949;BME280;17637;51.984;21.208;2022-11-15T05:10:51;100270.16;;;5.41;78.00
30949;BME280;17637;51.984;21.208;2022-11-15T05:13:18;99842.19;;;2.86;77.30
30949;BME280;17637;51.984;21.208;2022-11-15T05:15:47;100379.59;;;5.79;78.25
30949;BME280;17637;51.984;21.208;2022-11-15T05:18:14;99971.00;;;3.38;77.79
30949;BME280;17637;51.984;21.208;2022-11-15T05:20:48;99467.44;;;0.48;77.92
30949;BME280;17637;51.984;21.208;2022-11-15T05:23:15;100129.56;;;4.45;78.26
30949;BME280;17637;51.984;21.208;2022-11-15T05:25:42;100403.63;;;5.96;78.50
30949;BME280;17637;51.984;21.208;2022-11-15T05:28:09;99990.69;;;3.54;78.37
30949;BME280;17637;51.984;21.208;2022-11-15T05:30:36;100335.53;;;5.71;78.45
30949;BME280;17637;51.984;21.208;2022-11-15T05:33:03;100357.34;;;5.61;78.41
30949;BME280;17637;51.984;21.208;2022-11-15T05:35:41;100373.34;;;5.92;78.61
30949;BME280;17637;51.984;21.208;2022-11-15T05:38:09;100333.09;;;5.59;78.61
30949;BME280;17637;51.984;21.208;2022-11-15T05:40:35;100196.47;;;4.85;78.50
30949;BME280;17637;51.984;21.208;2022-11-15T05:43:04;100368.94;;;5.98;78.49
30949;BME280;17637;51.984;21.208;2022-11-15T05:45:32;100206.69;;;4.99;78.75
30949;BME280;17637;51.984;21.208;2022-11-15T05:48:01;100248.94;;;5.10;78.78
30949;BME280;17637;51.984;21.208;2022-11-15T05:50:30;100269.47;;;5.27;79.11
30949;BME280;17637;51.984;21.208;2022-11-15T05:52:58;100156.19;;;4.58;78.92
30949;BME280;17637;51.984;21.208;2022-11-15T05:55:31;100334.94;;;5.50;79.13
30949;BME280;17637;51.984;21.208;2022-11-15T05:57:58;99406.06;;;-0.20;78.29
30949;BME280;17637;51.984;21.208;2022-11-15T06:00:26;99702.97;;;1.56;78.70
30949;BME280;17637;51.984;21.208;2022-11-15T06:02:53;100391.63;;;5.87;78.59
30949;BME280;17637;51.984;21.208;2022-11-15T06:05:20;100063.53;;;4.02;78.48
30949;BME280;17637;51.984;21.208;2022-11-15T06:07:47;100110.66;;;4.34;78.74
30949;BME280;17637;51.984;21.208;2022-11-15T06:10:14;100028.66;;;3.52;78.70
30949;BME280;17637;51.984;21.208;2022-11-15T06:12:41;100183.06;;;4.49;78.73
30949;BME280;17637;51.984;21.208;2022-11-15T06:15:08;100008.75;;;3.59;78.84
30949;BME280;17637;51.984;21.208;2022-11-15T06:17:35;100352.16;;;5.58;79.06
30949;BME280;17637;51.984;21.208;2022-11-15T06:20:02;100265.38;;;5.07;78.52
30949;BME280;17637;51.984;21.208;2022-11-15T06:22:30;100127.13;;;4.30;78.61
30949;BME280;17637;51.984;21.208;2022-11-15T06:24:57;100382.94;;;5.87;79.24
30949;BME280;17637;51.984;21.208;2022-11-15T06:27:30;99985.50;;;3.54;78.65
30949;BME280;17637;51.984;21.208;2022-11-15T06:29:57;99826.19;;;2.48;78.32
30949;BME280;17637;51.984;21.208;2022-11-15T06:32:24;100270.28;;;5.30;78.76
30949;BME280;17637;51.984;21.208;2022-11-15T06:34:51;100353.31;;;5.37;78.67
30949;BME280;17637;51.984;21.208;2022-11-15T06:37:18;99916.25;;;2.93;79.20
30949;BME280;17637;51.984;21.208;2022-11-15T06:39:45;100206.31;;;4.60;78.99
30949;BME280;17637;51.984;21.208;2022-11-15T06:42:12;99268.38;;;-0.79;78.37
30949;BME280;17637;51.984;21.208;2022-11-15T06:44:39;100335.81;;;5.51;78.95
30949;BME280;17637;51.984;21.208;2022-11-15T06:47:06;100383.81;;;5.87;78.99
30949;BME280;17637;51.984;21.208;2022-11-15T06:49:33;100110.97;;;4.06;78.59
30949;BME280;17637;51.984;21.208;2022-11-15T06:52:00;100193.22;;;4.69;78.66
30949;BME280;17637;51.984;21.208;2022-11-15T06:54:27;99704.63;;;1.68;77.77
30949;BME280;17637;51.984;21.208;2022-11-15T06:56:54;100216.34;;;4.87;78.36
30949;BME280;17637;51.984;21.208;2022-11-15T06:59:22;99845.75;;;2.74;78.20
30949;BME280;17637;51.984;21.208;2022-11-15T07:01:50;99989.78;;;3.55;78.31
30949;BME280;17637;51.984;21.208;2022-11-15T07:04:17;100092.69;;;4.21;78.40
30949;BME280;17637;51.984;21.208;2022-11-15T07:06:46;100423.59;;;5.94;78.81
30949;BME280;17637;51.984;21.208;2022-11-15T07:09:14;100406.16;;;6.01;78.54
30949;BME280;17637;51.984;21.208;2022-11-15T07:11:41;100346.03;;;5.63;78.85
30949;BME280;17637;51.984;21.208;2022-11-15T07:14:08;99615.44;;;1.35;78.10
30949;BME280;17637;51.984;21.208;2022-11-15T07:16:36;99568.75;;;0.50;78.14
30949;BME280;17637;51.984;21.208;2022-11-15T07:19:03;100389.72;;;6.00;78.63
30949;BME280;17637;51.984;21.208;2022-11-15T07:21:32;100283.22;;;5.33;78.20
30949;BME280;17637;51.984;21.208;2022-11-15T07:23:59;100066.91;;;4.09;77.80
30949;BME280;17637;51.984;21.208;2022-11-15T07:26:26;100217.22;;;4.85;78.07
30949;BME280;17637;51.984;21.208;2022-11-15T07:28:53;99977.78;;;3.50;78.24
30949;BME280;17637;51.984;21.208;2022-11-15T07:31:21;100388.84;;;6.01;78.39
30949;BME280;17637;51.984;21.208;2022-11-15T07:33:49;100345.94;;;5.71;78.22
30949;BME280;17637;51.984;21.208;2022-11-15T07:36:16;100094.38;;;4.24;78.27
30949;BME280;17637;51.984;21.208;2022-11-15T07:38:43;100152.50;;;4.76;78.03
30949;BME280;17637;51.984;21.208;2022-11-15T07:41:10;99460.47;;;0.63;77.37
30949;BME280;17637;51.984;21.208;2022-11-15T07:43:37;100380.84;;;6.15;77.70
30949;BME280;17637;51.984;21.208;2022-11-15T07:46:06;99954.53;;;3.47;77.49
30949;BME280;17637;51.984;21.208;2022-11-15T07:48:36;100382.50;;;6.21;78.19
30949;BME280;17637;51.984;21.208;2022-11-15T07:51:15;100377.22;;;6.25;77.61
30949;BME280;17637;51.984;21.208;2022-11-15T07:53:43;99579.25;;;1.47;77.18
30949;BME280;17637;51.984;21.208;2022-11-15T07:56:10;100023.72;;;4.10;77.55
30949;BME280;17637;51.984;21.208;2022-11-15T07:58:38;100374.00;;;6.08;77.31
30949;BME280;17637;51.984;21.208;2022-11-15T08:01:06;100250.84;;;5.59;77.34
30949;BME280;17637;51.984;21.208;2022-11-15T08:03:34;100072.31;;;4.60;77.20
30949;BME280;17637;51.984;21.208;2022-11-15T08:06:02;100383.75;;;5.95;77.11
30949;BME280;17637;51.984;21.208;2022-11-15T08:08:29;99816.91;;;2.26;76.60
30949;BME280;17637;51.984;21.208;2022-11-15T08:11:00;100083.28;;;4.78;77.26
30949;BME280;17637;51.984;21.208;2022-11-15T08:13:27;100350.22;;;6.34;77.13
30949;BME280;17637;51.984;21.208;2022-11-15T08:15:59;100101.97;;;5.01;76.78
30949;BME280;17637;51.984;21.208;2022-11-15T08:18:26;100133.91;;;5.06;76.68
30949;BME280;17637;51.984;21.208;2022-11-15T08:20:53;100138.31;;;5.01;76.79
30949;BME280;17637;51.984;21.208;2022-11-15T08:23:20;100018.94;;;4.42;77.07
30949;BME280;17637;51.984;21.208;2022-11-15T08:25:47;100208.72;;;5.39;77.82
30949;BME280;17637;51.984;21.208;2022-11-15T08:28:16;100240.13;;;5.79;77.50
30949;BME280;17637;51.984;21.208;2022-11-15T08:30:43;100205.91;;;5.54;77.20
30949;BME280;17637;51.984;21.208;2022-11-15T08:33:13;100320.91;;;6.23;76.90
30949;BME280;17637;51.984;21.208;2022-11-15T08:35:42;99788.53;;;3.05;76.52
30949;BME280;17637;51.984;21.208;2022-11-15T08:38:09;99252.88;;;-0.67;76.38
30949;BME280;17637;51.984;21.208;2022-11-15T08:40:37;100035.84;;;4.71;76.06
30949;BME280;17637;51.984;21.208;2022-11-15T08:43:04;99942.53;;;4.09;76.07
30949;BME280;17637;51.984;21.208;2022-11-15T08:45:34;100017.72;;;4.69;76.59
30949;BME280;17637;51.984;21.208;2022-11-15T08:48:02;100083.72;;;5.07;76.48
30949;BME280;17637;51.984;21.208;2022-11-15T08:50:30;100358.44;;;6.62;76.34
30949;BME280;17637;51.984;21.208;2022-11-15T08:52:57;99838.53;;;3.75;75.80
30949;BME280;17637;51.984;21.208;2022-11-15T08:55:24;100352.31;;;6.63;76.58
30949;BME280;17637;51.984;21.208;2022-11-15T08:57:51;100042.31;;;5.01;75.87
30949;BME280;17637;51.984;21.208;2022-11-15T09:00:18;100255.69;;;6.36;75.43
30949;BME280;17637;51.984;21.208;2022-11-15T09:02:46;100156.38;;;5.65;74.93
30949;BME280;17637;51.984;21.208;2022-11-15T09:05:13;100176.22;;;5.69;74.39
30949;BME280;17637;51.984;21.208;2022-11-15T09:07:42;100287.94;;;6.25;74.20
30949;BME280;17637;51.984;21.208;2022-11-15T09:10:09;100002.66;;;4.36;74.79
30949;BME280;17637;51.984;21.208;2022-11-15T09:12:37;99219.84;;;-0.05;74.21
30949;BME280;17637;51.984;21.208;2022-11-15T09:15:05;100301.78;;;6.76;74.79
30949;BME280;17637;51.984;21.208;2022-11-15T09:17:33;99287.91;;;0.57;74.05
30949;BME280;17637;51.984;21.208;2022-11-15T09:20:01;99558.88;;;2.01;74.51
30949;BME280;17637;51.984;21.208;2022-11-15T09:22:28;98986.16;;;-1.41;74.45
30949;BME280;17637;51.984;21.208;2022-11-15T09:24:56;99177.72;;;-1.09;74.16
30949;BME280;17637;51.984;21.208;2022-11-15T09:27:27;98845.28;;;-1.81;74.65
30949;BME280;17637;51.984;21.208;2022-11-15T09:29:54;99721.09;;;3.18;75.02
30949;BME280;17637;51.984;21.208;2022-11-15T09:32:22;100288.69;;;6.81;75.27
30949;BME280;17637;51.984;21.208;2022-11-15T09:34:50;99425.63;;;1.15;74.65
30949;BME280;17637;51.984;21.208;2022-11-15T09:37:17;99594.94;;;2.09;74.26
30949;BME280;17637;51.984;21.208;2022-11-15T09:39:44;99327.63;;;1.18;74.10
30949;BME280;17637;51.984;21.208;2022-11-15T09:42:38;100257.94;;;6.55;74.19
30949;BME280;17637;51.984;21.208;2022-11-15T09:47:49;100279.00;;;6.88;74.34
30949;BME280;17637;51.984;21.208;2022-11-15T09:56:22;100166.00;;;6.11;74.35
30949;BME280;17637;51.984;21.208;2022-11-15T10:04:22;98734.00;;;-2.82;73.39
30949;BME280;17637;51.984;21.208;2022-11-15T10:07:01;100246.63;;;7.02;74.81
30949;BME280;17637;51.984;21.208;2022-11-15T10:09:38;100229.19;;;7.04;74.80
30949;BME280;17637;51.984;21.208;2022-11-15T10:12:10;100255.78;;;7.19;74.37
30949;BME280;17637;51.984;21.208;2022-11-15T10:14:40;100108.00;;;6.52;73.36
30949;BME280;17637;51.984;21.208;2022-11-15T10:22:45;100110.19;;;6.30;74.66
30949;BME280;17637;51.984;21.208;2022-11-15T10:25:25;99911.00;;;5.38;74.24
30949;BME280;17637;51.984;21.208;2022-11-15T10:30:34;100213.94;;;7.28;74.15
30949;BME280;17637;51.984;21.208;2022-11-15T10:33:26;100168.22;;;6.76;73.94
30949;BME280;17637;51.984;21.208;2022-11-15T10:44:29;100207.78;;;6.92;74.25
30949;BME280;17637;51.984;21.208;2022-11-15T10:52:13;100200.47;;;6.69;75.11
30949;BME280;17637;51.984;21.208;2022-11-15T10:54:43;100198.66;;;6.71;75.51
30949;BME280;17637;51.984;21.208;2022-11-15T10:57:15;100200.41;;;6.70;75.42
30949;BME280;17637;51.984;21.208;2022-11-15T10:59:49;99899.53;;;5.04;74.87
30949;BME280;17637;51.984;21.208;2022-11-15T11:02:35;100207.25;;;6.76;74.94
30949;BME280;17637;51.984;21.208;2022-11-15T11:05:06;100150.81;;;6.34;75.45
30949;BME280;17637;51.984;21.208;2022-11-15T11:08:01;100056.78;;;5.66;75.37
30949;BME280;17637;51.984;21.208;2022-11-15T11:10:28;100213.25;;;6.79;75.73
30949;BME280;17637;51.984;21.208;2022-11-15T11:13:28;99363.56;;;1.97;74.48
30949;BME280;17637;51.984;21.208;2022-11-15T11:19:13;100176.34;;;7.01;75.26
30949;BME280;17637;51.984;21.208;2022-11-15T11:22:04;100030.97;;;6.05;75.04
30949;BME280;17637;51.984;21.208;2022-11-15T11:30:06;99841.59;;;5.02;74.37
30949;BME280;17637;51.984;21.208;2022-11-15T11:33:14;99696.81;;;4.33;74.71
30949;BME280;17637;51.984;21.208;2022-11-15T11:38:37;100162.84;;;7.22;74.46
30949;BME280;17637;51.984;21.208;2022-11-15T11:57:51;99926.09;;;5.64;74.36
30949;BME280;17637;51.984;21.208;2022-11-15T12:00:24;99745.03;;;4.43;74.20
30949;BME280;17637;51.984;21.208;2022-11-15T12:05:34;100090.38;;;6.65;74.54
30949;BME280;17637;51.984;21.208;2022-11-15T12:11:20;100120.59;;;6.71;75.52
30949;BME280;17637;51.984;21.208;2022-11-15T12:13:55;100115.44;;;6.69;75.38
30949;BME280;17637;51.984;21.208;2022-11-15T12:16:29;100060.81;;;6.29;75.63
30949;BME280;17637;51.984;21.208;2022-11-15T12:19:03;99754.28;;;4.58;75.80
30949;BME280;17637;51.984;21.208;2022-11-15T12:21:49;100008.22;;;6.16;75.69
30949;BME280;17637;51.984;21.208;2022-11-15T12:24:56;100116.41;;;7.04;75.46
30949;BME280;17637;51.984;21.208;2022-11-15T12:30:03;99458.91;;;3.21;74.81
30949;BME280;17637;51.984;21.208;2022-11-15T12:32:31;100109.34;;;7.09;74.64
30949;BME280;17637;51.984;21.208;2022-11-15T12:35:01;99968.69;;;5.98;74.56
30949;BME280;17637;51.984;21.208;2022-11-15T12:40:17;100093.56;;;7.17;75.32
30949;BME280;17637;51.984;21.208;2022-11-15T12:45:42;100087.41;;;7.19;74.36
30949;BME280;17637;51.984;21.208;2022-11-15T12:53:30;100082.25;;;7.16;75.31
30949;BME280;17637;51.984;21.208;2022-11-15T13:07:02;100076.13;;;6.81;76.06
30949;BME280;17637;51.984;21.208;2022-11-15T13:14:46;100062.00;;;6.92;75.38
30949;BME280;17637;51.984;21.208;2022-11-15T13:28:10;100076.13;;;6.81;75.91
30949;BME280;17637;51.984;21.208;2022-11-15T13:30:40;99961.34;;;6.17;75.60
30949;BME280;17637;51.984;21.208;2022-11-15T13:33:13;100067.31;;;6.89;76.43
30949;BME280;17637;51.984;21.208;2022-11-15T13:35:46;100064.50;;;6.96;76.15
30949;BME280;17637;51.984;21.208;2022-11-15T13:38:28;99958.38;;;6.36;76.12
30949;BME280;17637;51.984;21.208;2022-11-15T13:40:58;99715.56;;;4.90;75.98
30949;BME280;17637;51.984;21.208;2022-11-15T13:43:29;100057.44;;;7.03;76.13
30949;BME280;17637;51.984;21.208;2022-11-15T13:48:42;100036.59;;;7.03;75.81
30949;BME280;17637;51.984;21.208;2022-11-15T13:51:18;100038.38;;;7.01;75.51
30949;BME280;17637;51.984;21.208;2022-11-15T13:54:17;99728.16;;;5.10;75.25
30949;BME280;17637;51.984;21.208;2022-11-15T13:56:45;99892.47;;;5.98;75.55
30949;BME280;17637;51.984;21.208;2022-11-15T13:59:34;100025.59;;;6.90;75.88
30949;BME280;17637;51.984;21.208;2022-11-15T14:02:18;100028.28;;;6.87;76.07
30949;BME280;17637;51.984;21.208;2022-11-15T14:04:58;99742.69;;;5.18;75.64
30949;BME280;17637;51.984;21.208;2022-11-15T14:07:27;100007.53;;;6.47;75.83
30949;BME280;17637;51.984;21.208;2022-11-15T14:09:55;99733.16;;;4.31;75.88
30949;BME280;17637;51.984;21.208;2022-11-15T14:12:34;100025.13;;;6.74;76.75
30949;BME280;17637;51.984;21.208;2022-11-15T14:15:27;100025.16;;;6.73;76.42
30949;BME280;17637;51.984;21.208;2022-11-15T14:17:54;99951.66;;;6.26;76.04
30949;BME280;17637;51.984;21.208;2022-11-15T14:23:05;100028.72;;;6.69;77.11
30949;BME280;17637;51.984;21.208;2022-11-15T14:25:34;100021.63;;;6.75;76.68
30949;BME280;17637;51.984;21.208;2022-11-15T14:28:15;100026.63;;;6.85;76.43
30949;BME280;17637;51.984;21.208;2022-11-15T14:30:44;99717.91;;;4.61;76.57
30949;BME280;17637;51.984;21.208;2022-11-15T14:33:21;100025.88;;;6.78;76.33
30949;BME280;17637;51.984;21.208;2022-11-15T14:35:50;100032.22;;;6.68;76.39
30949;BME280;17637;51.984;21.208;2022-11-15T14:38:18;99013.00;;;0.69;76.15
30949;BME280;17637;51.984;21.208;2022-11-15T14:40:45;99622.72;;;4.24;76.55
30949;BME280;17637;51.984;21.208;2022-11-15T14:43:12;100018.34;;;6.67;76.95
30949;BME280;17637;51.984;21.208;2022-11-15T14:45:39;99816.06;;;5.26;77.28
30949;BME280;17637;51.984;21.208;2022-11-15T14:48:07;100011.97;;;6.42;77.52
30949;BME280;17637;51.984;21.208;2022-11-15T14:50:34;100021.31;;;6.52;77.68
30949;BME280;17637;51.984;21.208;2022-11-15T14:53:02;99632.03;;;4.33;76.85
30949;BME280;17637;51.984;21.208;2022-11-15T14:55:32;100017.44;;;6.68;76.94
30949;BME280;17637;51.984;21.208;2022-11-15T14:58:02;99739.13;;;4.81;76.80
30949;BME280;17637;51.984;21.208;2022-11-15T15:00:30;99444.75;;;2.92;76.41
30949;BME280;17637;51.984;21.208;2022-11-15T15:03:01;100021.81;;;6.66;76.82
30949;BME280;17637;51.984;21.208;2022-11-15T15:05:34;100015.97;;;6.56;76.97
30949;BME280;17637;51.984;21.208;2022-11-15T15:08:01;99784.97;;;5.23;77.02
30949;BME280;17637;51.984;21.208;2022-11-15T15:10:33;99691.03;;;4.65;76.98
30949;BME280;17637;51.984;21.208;2022-11-15T15:13:18;99737.19;;;4.91;76.87
30949;BME280;17637;51.984;21.208;2022-11-15T15:15:46;99610.94;;;4.06;76.48
30949;BME280;17637;51.984;21.208;2022-11-15T15:18:13;100029.69;;;6.65;76.69
30949;BME280;17637;51.984;21.208;2022-11-15T15:20:43;99532.03;;;3.32;76.53
30949;BME280;17637;51.984;21.208;2022-11-15T15:23:18;100008.91;;;6.63;76.93
30949;BME280;17637;51.984;21.208;2022-11-15T15:25:46;99777.34;;;5.15;76.83
30949;BME280;17637;51.984;21.208;2022-11-15T15:28:15;99810.13;;;5.19;77.19
30949;BME280;17637;51.984;21.208;2022-11-15T15:30:42;99850.88;;;5.58;77.19
30949;BME280;17637;51.984;21.208;2022-11-15T15:33:10;99926.38;;;5.92;77.54
30949;BME280;17637;51.984;21.208;2022-11-15T15:35:37;99850.22;;;5.48;77.92
30949;BME280;17637;51.984;21.208;2022-11-15T15:38:05;99323.00;;;2.04;77.50
30949;BME280;17637;51.984;21.208;2022-11-15T15:40:33;99946.19;;;5.99;78.13